Time;durP1;ratioP1;P1;durP2;ratioP2;P2;SDS_P1;SDS_P2;PMS_P1;PMS_P2;Temp;Humidity;BMP_temperature;BMP_pressure;BME280_temperature;BME280_humidity;BME280_pressure;Samples;Min_cycle;Max_cycle;Signal;HPM_P1;HPM_P2
2023/01/12 00:02:15;;;;;;;12.47;3.03;;;9.30;99.90;;;;;;5054939;28;20181;-69
2023/01/12 00:04:41;;;;;;;16.93;3.63;;;9.30;99.90;;;;;;5054981;28;20184;-68
2023/01/12 00:07:11;;;;;;;18.57;3.57;;;9.30;99.90;;;;;;5054499;28;20181;-69
2023/01/12 00:09:37;;;;;;;12.33;3.40;;;9.30;99.90;;;;;;5054876;28;20224;-68
2023/01/12 00:12:06;;;;;;;12.43;3.63;;;9.30;99.90;;;;;;5054836;28;20648;-68
2023/01/12 00:14:35;;;;;;;18.87;3.93;;;9.30;99.90;;;;;;5054400;28;20181;-69
2023/01/12 00:17:01;;;;;;;18.60;3.47;;;9.20;99.90;;;;;;5054516;28;20247;-69
2023/01/12 00:19:27;;;;;;;15.93;3.73;;;9.20;99.90;;;;;;5054464;28;20205;-69
2023/01/12 00:24:29;;;;;;;13.67;3.67;;;9.20;99.90;;;;;;5057983;28;20169;-68
2023/01/12 00:26:57;;;;;;;21.17;3.57;;;9.30;99.90;;;;;;5096836;28;20279;-68
2023/01/12 00:29:24;;;;;;;19.00;3.53;;;9.30;99.90;;;;;;5096740;28;20175;-69
2023/01/12 00:31:50;;;;;;;13.40;3.73;;;9.30;99.90;;;;;;5096800;28;20226;-69
2023/01/12 00:34:16;;;;;;;20.37;3.83;;;9.30;99.90;;;;;;5096487;28;20174;-67
2023/01/12 00:36:43;;;;;;;13.30;3.27;;;9.40;99.90;;;;;;5096694;28;20208;-68
2023/01/12 00:39:08;;;;;;;17.03;3.53;;;9.40;99.90;;;;;;5096643;28;20619;-69
2023/01/12 00:47:14;;;;;;;12.17;3.23;;;9.50;99.90;;;;;;5054336;28;20175;-69
2023/01/12 00:49:40;;;;;;;13.37;3.27;;;9.60;99.90;;;;;;5053725;28;20178;-69
2023/01/12 00:52:08;;;;;;;15.63;3.47;;;9.60;99.90;;;;;;5053998;28;20227;-68
2023/01/12 00:54:34;;;;;;;14.23;3.73;;;9.70;99.90;;;;;;5053928;28;20659;-68
2023/01/12 00:57:01;;;;;;;12.20;3.30;;;9.60;99.90;;;;;;5053867;28;20292;-68
2023/01/12 00:59:27;;;;;;;15.60;3.57;;;9.70;99.90;;;;;;5053982;28;20633;-69
2023/01/12 01:01:53;;;;;;;14.43;3.60;;;9.70;99.90;;;;;;5052974;28;20177;-69
2023/01/12 01:04:18;;;;;;;18.13;3.53;;;9.70;99.90;;;;;;5053667;28;20231;-69
2023/01/12 01:06:44;;;;;;;18.53;3.87;;;9.80;99.90;;;;;;5053833;28;20184;-68
2023/01/12 01:09:10;;;;;;;17.27;3.23;;;9.90;99.90;;;;;;5053644;28;20250;-69
2023/01/12 01:11:35;;;;;;;18.63;3.57;;;9.90;99.90;;;;;;5053645;28;20208;-69
2023/01/12 01:14:02;;;;;;;19.17;3.90;;;9.90;99.90;;;;;;5053679;28;20185;-69
2023/01/12 01:16:28;;;;;;;13.77;3.17;;;10.00;99.90;;;;;;5053567;28;20327;-68
2023/01/12 01:18:54;;;;;;;12.90;3.40;;;9.90;99.90;;;;;;5053452;28;20520;-69
2023/01/12 01:21:20;;;;;;;20.87;3.80;;;10.00;99.90;;;;;;5065471;28;20191;-69
2023/01/12 01:23:46;;;;;;;16.50;4.00;;;10.00;99.90;;;;;;5075498;28;20172;-70
2023/01/12 01:26:14;;;;;;;13.43;3.10;;;9.90;99.90;;;;;;5075578;28;20219;-71
2023/01/12 01:28:40;;;;;;;15.33;3.13;;;10.00;99.90;;;;;;5075488;28;20219;-69
2023/01/12 01:31:17;;;;;;;18.17;3.60;;;10.10;99.90;;;;;;5075589;28;20171;-69
2023/01/12 01:33:43;;;;;;;19.40;4.13;;;10.00;99.90;;;;;;5075356;28;20183;-69
2023/01/12 01:36:09;;;;;;;13.37;3.60;;;9.90;99.90;;;;;;5075141;28;20314;-69
2023/01/12 01:38:36;;;;;;;18.97;4.37;;;9.90;99.90;;;;;;5075296;28;20165;-68
2023/01/12 01:41:03;;;;;;;17.57;4.00;;;9.70;99.90;;;;;;5075408;28;20173;-69
2023/01/12 01:43:50;;;;;;;15.70;3.40;;;9.70;99.90;;;;;;5078006;28;20215;-68
2023/01/12 01:46:50;;;;;;;16.77;3.23;;;9.70;99.90;;;;;;5095111;28;20226;-69
2023/01/12 01:49:52;;;;;;;17.73;3.37;;;9.70;99.90;;;;;;5013261;28;20194;-69
2023/01/12 01:52:35;;;;;;;16.73;3.50;;;9.70;99.90;;;;;;5013234;28;20220;-69
2023/01/12 01:55:23;;;;;;;18.10;3.53;;;9.80;99.90;;;;;;5013125;28;20205;-68
2023/01/12 01:58:13;;;;;;;12.80;2.93;;;9.80;99.90;;;;;;5013228;28;20174;-69
2023/01/12 02:00:42;;;;;;;12.17;3.20;;;9.80;99.90;;;;;;5013052;28;20178;-69
2023/01/12 02:03:08;;;;;;;17.90;3.67;;;9.90;99.90;;;;;;5012583;28;20217;-68
2023/01/12 02:05:36;;;;;;;11.30;2.67;;;9.90;99.90;;;;;;5012898;28;20206;-68
2023/01/12 02:08:10;;;;;;;13.50;2.90;;;9.80;99.90;;;;;;4996394;28;20198;-68
2023/01/12 02:10:37;;;;;;;14.83;3.00;;;9.90;99.90;;;;;;5012931;28;20178;-68
2023/01/12 02:16:20;;;;;;;13.97;3.00;;;9.80;99.90;;;;;;5012419;28;20236;-68
2023/01/12 02:18:51;;;;;;;12.20;2.70;;;9.90;99.90;;;;;;5012785;28;20187;-68
2023/01/12 02:21:35;;;;;;;13.37;3.00;;;10.00;99.90;;;;;;5012722;28;20175;-68
2023/01/12 02:24:39;;;;;;;13.37;2.73;;;9.90;99.90;;;;;;5012555;28;20170;-69
2023/01/12 02:27:41;;;;;;;11.13;3.07;;;10.00;99.90;;;;;;5015673;28;20610;-69
2023/01/12 02:30:35;;;;;;;15.33;2.87;;;9.90;99.90;;;;;;5031966;28;20633;-68
2023/01/12 02:33:30;;;;;;;15.07;3.03;;;9.90;99.90;;;;;;5032334;28;20251;-69
2023/01/12 02:36:22;;;;;;;13.00;3.17;;;9.90;99.90;;;;;;5032058;28;20711;-68
2023/01/12 02:39:01;;;;;;;12.53;2.57;;;9.90;99.90;;;;;;5032012;28;20174;-68
2023/01/12 02:44:35;;;;;;;13.63;3.20;;;9.80;99.90;;;;;;5031387;28;20268;-68
2023/01/12 02:47:06;;;;;;;13.03;3.10;;;9.80;99.90;;;;;;5031794;28;20256;-68
2023/01/12 02:49:38;;;;;;;17.27;3.40;;;9.70;99.90;;;;;;5032039;28;20172;-68
2023/01/12 02:52:11;;;;;;;11.10;3.13;;;9.70;99.90;;;;;;5031944;28;20186;-69
2023/01/12 02:54:40;;;;;;;10.50;3.50;;;9.70;99.90;;;;;;5031952;28;20166;-68
2023/01/12 02:57:07;;;;;;;12.33;3.17;;;9.70;99.90;;;;;;5031583;28;20222;-68
2023/01/12 02:59:37;;;;;;;14.20;3.10;;;9.70;99.90;;;;;;5031284;28;20193;-68
2023/01/12 03:02:07;;;;;;;13.87;3.20;;;9.70;99.90;;;;;;5031594;28;20256;-68
2023/01/12 03:04:33;;;;;;;12.67;2.83;;;9.70;99.90;;;;;;5072938;28;20180;-68
2023/01/12 03:06:59;;;;;;;16.63;3.53;;;9.70;99.90;;;;;;5093836;28;20200;-68
2023/01/12 03:09:34;;;;;;;20.37;3.63;;;9.70;99.90;;;;;;5093812;28;20215;-68
2023/01/12 03:12:05;;;;;;;17.37;3.37;;;9.70;99.90;;;;;;5093604;28;20175;-68
2023/01/12 03:14:34;;;;;;;13.37;3.50;;;9.70;99.90;;;;;;5093360;28;20171;-67
2023/01/12 03:17:05;;;;;;;21.37;3.90;;;9.70;99.90;;;;;;5093598;28;20207;-68
2023/01/12 03:19:32;;;;;;;15.97;3.83;;;9.70;99.90;;;;;;5093774;28;20182;-69
2023/01/12 03:22:06;;;;;;;16.73;2.90;;;9.70;99.90;;;;;;5093732;28;20210;-68
2023/01/12 03:24:36;;;;;;;14.17;3.03;;;9.70;99.90;;;;;;5092980;28;20174;-69
2023/01/12 03:27:09;;;;;;;10.37;3.00;;;9.70;99.90;;;;;;5093433;28;20164;-68
2023/01/12 03:29:40;;;;;;;15.67;3.70;;;9.70;99.90;;;;;;5093348;28;20168;-70
2023/01/12 03:32:06;;;;;;;22.63;3.20;;;9.70;99.90;;;;;;5093677;28;20695;-70
2023/01/12 03:34:32;;;;;;;19.20;3.93;;;9.70;99.90;;;;;;5093531;28;20164;-68
2023/01/12 03:37:07;;;;;;;19.87;3.30;;;9.60;99.90;;;;;;5093322;28;20204;-69
2023/01/12 03:40:05;;;;;;;20.77;3.80;;;9.70;99.90;;;;;;5093610;28;20171;-69
2023/01/12 03:42:40;;;;;;;18.73;3.80;;;9.70;99.90;;;;;;5093095;28;20665;-68
2023/01/12 03:45:20;;;;;;;15.30;4.60;;;9.60;99.90;;;;;;5092930;28;20229;-68
2023/01/12 03:47:50;;;;;;;16.00;4.23;;;9.70;99.90;;;;;;5093264;28;20238;-70
2023/01/12 03:50:21;;;;;;;19.73;4.97;;;9.70;99.90;;;;;;5093513;28;20211;-69
2023/01/12 03:52:47;;;;;;;18.60;3.93;;;9.70;99.90;;;;;;5093503;28;20175;-70
2023/01/12 03:55:16;;;;;;;19.17;4.83;;;9.70;99.90;;;;;;5093271;28;20203;-70
2023/01/12 03:57:43;;;;;;;11.77;3.90;;;9.70;99.90;;;;;;5092589;28;20631;-69
2023/01/12 04:00:12;;;;;;;16.03;3.47;;;9.70;99.90;;;;;;5093251;28;20179;-69
2023/01/12 04:02:38;;;;;;;18.70;4.37;;;9.70;99.90;;;;;;5093303;28;20278;-69
2023/01/12 04:05:06;;;;;;;14.70;4.10;;;9.70;99.90;;;;;;5093228;28;20590;-69
2023/01/12 04:07:31;;;;;;;18.93;3.70;;;9.70;99.90;;;;;;5093141;28;20164;-69
2023/01/12 04:09:57;;;;;;;20.07;4.00;;;9.70;99.90;;;;;;5093137;28;20757;-69
2023/01/12 04:12:23;;;;;;;16.73;3.63;;;9.70;99.90;;;;;;5092700;28;20222;-69
2023/01/12 04:14:49;;;;;;;22.87;3.97;;;9.70;99.90;;;;;;5093143;28;20179;-68
2023/01/12 04:17:15;;;;;;;14.53;2.83;;;9.70;99.90;;;;;;5092857;28;20246;-69
2023/01/12 04:19:42;;;;;;;12.00;3.30;;;9.70;99.90;;;;;;5092759;28;20179;-69
2023/01/12 04:24:52;;;;;;;19.63;3.73;;;9.80;99.90;;;;;;5092801;28;20687;-69
2023/01/12 04:27:18;;;;;;;21.43;3.63;;;9.70;99.90;;;;;;5092568;28;20172;-69
2023/01/12 04:29:44;;;;;;;15.00;3.50;;;9.70;99.90;;;;;;5092656;28;20631;-69
2023/01/12 04:32:10;;;;;;;14.23;3.60;;;9.70;99.90;;;;;;5092826;28;20281;-69
2023/01/12 04:34:35;;;;;;;12.13;2.80;;;9.70;99.90;;;;;;5092777;28;20277;-68
2023/01/12 04:37:02;;;;;;;13.47;3.00;;;9.70;99.90;;;;;;5093741;28;20697;-68
2023/01/12 04:39:28;;;;;;;14.77;3.03;;;9.70;99.90;;;;;;5096405;28;20175;-68
2023/01/12 04:41:54;;;;;;;11.43;2.97;;;9.70;99.90;;;;;;5096119;28;20172;-69
2023/01/12 04:44:20;;;;;;;13.90;2.90;;;9.70;99.90;;;;;;5095977;28;20272;-70
2023/01/12 04:46:48;;;;;;;11.50;3.07;;;9.70;99.90;;;;;;5096549;28;20171;-69
2023/01/12 04:49:13;;;;;;;20.30;3.70;;;9.70;99.90;;;;;;5096376;28;20217;-70
2023/01/12 04:51:42;;;;;;;12.80;3.10;;;9.70;99.90;;;;;;5096260;28;20171;-69
2023/01/12 04:54:09;;;;;;;13.57;3.03;;;9.70;99.90;;;;;;5096090;28;20172;-68
2023/01/12 04:56:35;;;;;;;13.00;2.77;;;9.70;99.90;;;;;;5095490;28;20200;-69
2023/01/12 04:59:00;;;;;;;14.67;3.10;;;9.60;99.90;;;;;;5095899;28;20179;-68
2023/01/12 05:01:28;;;;;;;9.50;2.43;;;9.70;99.90;;;;;;5096098;28;20258;-68
2023/01/12 05:03:56;;;;;;;12.80;2.60;;;9.70;99.90;;;;;;5096141;28;20187;-69
2023/01/12 05:06:23;;;;;;;16.47;2.90;;;9.60;99.90;;;;;;5095680;28;20164;-69
2023/01/12 05:11:33;;;;;;;19.27;2.93;;;9.70;99.90;;;;;;5095887;28;20199;-69
2023/01/12 05:13:59;;;;;;;18.60;3.07;;;9.70;99.90;;;;;;5095235;28;20631;-68
2023/01/12 05:16:26;;;;;;;13.13;3.37;;;9.70;99.90;;;;;;5095601;28;20731;-70
2023/01/12 05:18:53;;;;;;;16.47;3.50;;;9.70;99.90;;;;;;5095759;28;20172;-68
2023/01/12 05:21:21;;;;;;;15.23;2.87;;;9.70;99.90;;;;;;5095560;28;20205;-69
2023/01/12 05:23:47;;;;;;;16.47;2.47;;;9.70;99.90;;;;;;5095098;28;20259;-69
2023/01/12 05:26:13;;;;;;;17.83;3.50;;;9.70;99.90;;;;;;5095555;28;20172;-68
2023/01/12 05:28:39;;;;;;;14.60;3.17;;;9.70;99.90;;;;;;5095479;28;20170;-69
2023/01/12 05:31:08;;;;;;;10.83;2.90;;;9.70;99.90;;;;;;5095327;28;20172;-70
2023/01/12 05:33:34;;;;;;;14.00;2.60;;;9.60;99.90;;;;;;5095240;28;20188;-69
2023/01/12 05:36:04;;;;;;;11.10;2.93;;;9.60;99.90;;;;;;5095138;28;20203;-68
2023/01/12 05:38:29;;;;;;;19.10;3.00;;;9.60;99.90;;;;;;5094717;28;20180;-69
2023/01/12 05:41:02;;;;;;;9.83;2.57;;;9.60;99.90;;;;;;5094763;28;20212;-71
2023/01/12 05:46:13;;;;;;;9.00;2.40;;;9.60;99.90;;;;;;5095221;28;20171;-69
2023/01/12 05:48:39;;;;;;;14.70;2.67;;;9.50;99.90;;;;;;5094169;28;20213;-70
2023/01/12 05:51:11;;;;;;;10.10;2.33;;;9.50;99.90;;;;;;5094777;28;20175;-70
2023/01/12 05:53:36;;;;;;;13.53;2.60;;;9.50;99.90;;;;;;5094076;28;20172;-69
2023/01/12 05:56:20;;;;;;;14.07;2.73;;;9.50;99.90;;;;;;5094397;28;20204;-70
2023/01/12 05:58:50;;;;;;;13.70;2.47;;;9.60;99.90;;;;;;5094380;28;20167;-69
2023/01/12 06:01:15;;;;;;;11.07;2.63;;;9.50;99.90;;;;;;5094295;28;20658;-70
2023/01/12 06:03:41;;;;;;;13.53;3.00;;;9.50;99.90;;;;;;5094699;28;20203;-69
2023/01/12 06:06:07;;;;;;;16.70;3.30;;;9.50;99.90;;;;;;5094395;28;20250;-70
2023/01/12 06:08:32;;;;;;;15.83;3.20;;;9.50;99.90;;;;;;5093801;28;20544;-70
2023/01/12 06:11:02;;;;;;;11.67;2.60;;;9.50;99.90;;;;;;5094070;28;20171;-70
2023/01/12 06:16:12;;;;;;;15.13;2.73;;;9.50;99.90;;;;;;5094260;28;20689;-70
2023/01/12 06:18:39;;;;;;;14.37;3.07;;;9.50;99.90;;;;;;5093958;28;20172;-69
2023/01/12 06:21:06;;;;;;;14.77;3.40;;;9.50;99.90;;;;;;5093653;28;20180;-70
2023/01/12 06:23:32;;;;;;;15.10;2.90;;;9.50;99.90;;;;;;5093268;28;20209;-70
2023/01/12 06:26:06;;;;;;;13.63;2.77;;;9.50;99.90;;;;;;5093852;28;20744;-69
2023/01/12 06:28:32;;;;;;;13.17;2.50;;;9.60;99.90;;;;;;5093616;28;20575;-70
2023/01/12 06:31:03;;;;;;;22.43;3.30;;;9.60;99.90;;;;;;5093426;28;20626;-69
2023/01/12 06:33:29;;;;;;;11.93;2.80;;;9.60;99.90;;;;;;5093051;28;20533;-70
2023/01/12 06:35:55;;;;;;;12.53;2.40;;;9.70;99.90;;;;;;5093198;28;20652;-70
2023/01/12 06:38:23;;;;;;;13.03;2.43;;;9.70;99.90;;;;;;5093120;28;20172;-69
2023/01/12 06:40:49;;;;;;;12.07;2.77;;;9.70;99.90;;;;;;5092548;28;20172;-71
2023/01/12 06:43:15;;;;;;;13.37;2.70;;;9.70;99.90;;;;;;5093329;28;20178;-71
2023/01/12 06:45:42;;;;;;;13.40;2.93;;;9.70;99.90;;;;;;5093252;28;20302;-71
2023/01/12 06:48:07;;;;;;;13.30;2.30;;;9.70;99.90;;;;;;5093571;28;20192;-71
2023/01/12 06:50:34;;;;;;;6.97;2.13;;;9.70;99.90;;;;;;5092949;28;20671;-72
2023/01/12 06:53:00;;;;;;;12.03;2.47;;;9.70;99.90;;;;;;5092946;28;20202;-70
2023/01/12 06:55:26;;;;;;;9.17;2.50;;;9.70;99.90;;;;;;5092782;28;20228;-71
2023/01/12 06:57:52;;;;;;;14.37;2.93;;;9.80;99.90;;;;;;5093106;28;20592;-70
2023/01/12 07:00:18;;;;;;;6.70;2.40;;;9.80;99.90;;;;;;5092723;28;20570;-70
2023/01/12 07:02:44;;;;;;;6.83;2.00;;;9.80;99.90;;;;;;5093185;28;20206;-70
2023/01/12 07:05:09;;;;;;;9.33;2.63;;;9.70;99.90;;;;;;5092315;28;20527;-71
2023/01/12 07:07:36;;;;;;;9.53;2.57;;;9.70;99.90;;;;;;5090919;28;20175;-71
2023/01/12 07:10:02;;;;;;;15.77;2.60;;;9.80;99.90;;;;;;5092356;28;20211;-70
2023/01/12 07:12:28;;;;;;;8.77;2.10;;;9.80;99.90;;;;;;5092990;28;20174;-70
2023/01/12 07:14:55;;;;;;;7.70;2.30;;;9.80;99.90;;;;;;5092239;28;20208;-70
2023/01/12 07:17:20;;;;;;;6.87;2.30;;;9.80;99.90;;;;;;5091968;28;20200;-72
2023/01/12 07:19:46;;;;;;;7.97;2.17;;;9.80;99.90;;;;;;5092313;28;20182;-70
2023/01/12 07:22:11;;;;;;;10.80;2.43;;;9.90;99.90;;;;;;5092107;28;20184;-72
2023/01/12 07:24:37;;;;;;;9.30;2.20;;;9.90;99.90;;;;;;5091936;28;20171;-70
2023/01/12 07:27:03;;;;;;;7.13;1.83;;;9.90;99.90;;;;;;5075946;28;20541;-72
2023/01/12 07:29:28;;;;;;;9.03;2.83;;;10.00;99.90;;;;;;5071718;28;20173;-72
2023/01/12 07:31:54;;;;;;;6.93;2.37;;;9.90;99.90;;;;;;5072169;28;20654;-70
2023/01/12 07:34:20;;;;;;;9.80;2.30;;;9.90;99.90;;;;;;5071405;28;20173;-71
2023/01/12 07:36:49;;;;;;;12.00;2.77;;;9.90;99.90;;;;;;5071214;28;20257;-70
2023/01/12 07:39:15;;;;;;;11.43;2.63;;;9.90;99.90;;;;;;5072888;28;20177;-71
2023/01/12 07:44:25;;;;;;;14.93;2.87;;;10.00;99.90;;;;;;5103810;28;20236;-71
2023/01/12 07:46:51;;;;;;;9.77;2.60;;;10.00;99.90;;;;;;5107857;28;20559;-73
2023/01/12 07:49:16;;;;;;;11.33;2.37;;;9.90;99.90;;;;;;5092862;28;20167;-71
2023/01/12 07:51:42;;;;;;;9.57;2.33;;;9.90;99.90;;;;;;5094858;28;20259;-70
2023/01/12 07:54:08;;;;;;;14.00;3.30;;;10.00;99.90;;;;;;5092134;28;20255;-72
2023/01/12 07:56:34;;;;;;;11.40;2.90;;;9.90;99.90;;;;;;5097255;28;20213;-72
2023/01/12 07:59:00;;;;;;;9.30;2.73;;;10.00;99.90;;;;;;5101536;28;20699;-72
2023/01/12 08:01:25;;;;;;;15.33;3.30;;;10.00;99.90;;;;;;5079377;28;20191;-71
2023/01/12 08:03:54;;;;;;;9.53;2.60;;;10.00;99.90;;;;;;5101489;28;20180;-72
2023/01/12 08:06:20;;;;;;;12.23;2.70;;;10.00;99.90;;;;;;5095702;28;20183;-71
2023/01/12 08:08:45;;;;;;;14.83;3.23;;;10.00;99.90;;;;;;5097431;28;20694;-70
2023/01/12 08:11:11;;;;;;;9.50;2.73;;;10.00;99.90;;;;;;5099550;28;20182;-71
2023/01/12 08:13:39;;;;;;;12.57;3.03;;;10.00;99.90;;;;;;5110558;28;20178;-71
2023/01/12 08:16:13;;;;;;;11.87;2.70;;;10.00;99.90;;;;;;5092898;28;20294;-70
2023/01/12 08:18:48;;;;;;;11.80;3.00;;;10.00;99.90;;;;;;5105026;28;20235;-71
2023/01/12 08:21:19;;;;;;;12.77;2.83;;;10.10;99.90;;;;;;5087814;28;20202;-71
2023/01/12 08:23:52;;;;;;;11.97;2.63;;;10.00;99.90;;;;;;5086540;28;20207;-70
2023/01/12 08:26:26;;;;;;;8.77;3.00;;;10.10;99.90;;;;;;5092000;28;20222;-72
2023/01/12 08:29:09;;;;;;;15.53;2.93;;;10.10;99.90;;;;;;5103603;28;20262;-70
2023/01/12 08:31:36;;;;;;;6.33;2.40;;;10.10;99.90;;;;;;5092098;28;20176;-71
2023/01/12 08:34:05;;;;;;;11.30;2.10;;;10.00;99.90;;;;;;5109044;28;20174;-71
2023/01/12 08:36:31;;;;;;;7.00;2.07;;;10.10;99.90;;;;;;5101314;28;20199;-72
2023/01/12 08:38:57;;;;;;;10.27;2.30;;;10.10;99.90;;;;;;5098889;27;20195;-71
2023/01/12 08:41:32;;;;;;;10.83;2.50;;;10.10;99.90;;;;;;5098977;28;20203;-71
2023/01/12 08:44:07;;;;;;;11.37;2.47;;;10.10;99.90;;;;;;5093721;28;20250;-70
2023/01/12 08:46:38;;;;;;;9.07;2.20;;;10.10;99.90;;;;;;5094159;28;20183;-70
2023/01/12 08:49:10;;;;;;;11.93;2.67;;;10.10;99.90;;;;;;5090514;28;20194;-71
2023/01/12 08:51:38;;;;;;;6.07;2.50;;;10.10;99.90;;;;;;5109409;28;20171;-72
2023/01/12 08:54:07;;;;;;;9.93;2.40;;;10.10;99.90;;;;;;5084818;28;20223;-69
2023/01/12 08:56:33;;;;;;;4.10;2.17;;;10.10;99.90;;;;;;5081481;28;20227;-71
2023/01/12 08:58:59;;;;;;;8.00;2.50;;;10.10;99.90;;;;;;5098739;28;20175;-72
2023/01/12 09:01:26;;;;;;;8.47;2.53;;;10.20;99.90;;;;;;5085606;28;20188;-71
2023/01/12 09:03:51;;;;;;;9.33;2.70;;;10.20;99.90;;;;;;5088654;28;20187;-72
2023/01/12 09:06:22;;;;;;;9.50;2.40;;;10.20;99.90;;;;;;5110587;28;20180;-72
2023/01/12 09:08:53;;;;;;;6.83;2.00;;;10.20;99.90;;;;;;5102918;28;20195;-73
2023/01/12 09:11:19;;;;;;;8.73;2.13;;;10.20;99.90;;;;;;5113019;28;20179;-72
2023/01/12 09:13:45;;;;;;;10.67;2.10;;;10.30;99.90;;;;;;5102384;28;20233;-72
2023/01/12 09:16:13;;;;;;;8.90;2.27;;;10.20;99.90;;;;;;5110809;28;20282;-72
2023/01/12 09:18:41;;;;;;;7.10;2.23;;;10.30;99.90;;;;;;5100605;28;20167;-72
2023/01/12 09:21:12;;;;;;;9.17;2.20;;;10.30;99.90;;;;;;5096067;28;20176;-72
2023/01/12 09:23:38;;;;;;;8.63;2.20;;;10.30;99.90;;;;;;5084497;28;20266;-70
2023/01/12 09:26:05;;;;;;;4.17;1.80;;;10.30;99.90;;;;;;5111349;28;20171;-71
2023/01/12 09:28:31;;;;;;;8.90;2.10;;;10.30;99.90;;;;;;5075477;28;20184;-72
2023/01/12 09:31:05;;;;;;;7.47;2.17;;;10.30;99.90;;;;;;5080328;28;20674;-72
2023/01/12 09:33:33;;;;;;;6.50;2.20;;;10.40;99.90;;;;;;5094645;28;20182;-72
2023/01/12 09:36:01;;;;;;;7.80;2.30;;;10.40;99.90;;;;;;5078953;28;20726;-71
2023/01/12 09:38:27;;;;;;;9.33;1.87;;;10.40;99.90;;;;;;5074159;28;20187;-70
2023/01/12 09:40:53;;;;;;;9.50;2.30;;;10.40;99.90;;;;;;5074043;28;20537;-71
2023/01/12 09:46:57;;;;;;;5.73;2.00;;;10.40;99.90;;;;;;5079607;28;20207;-72
2023/01/12 09:49:05;;;;;;;7.47;2.27;;;10.40;99.90;;;;;;5072824;28;20616;-71
2023/01/12 09:51:37;;;;;;;8.23;2.40;;;10.50;99.90;;;;;;5089979;28;20175;-72
2023/01/12 09:54:04;;;;;;;8.93;2.40;;;10.40;99.90;;;;;;5095371;28;20194;-71
2023/01/12 09:56:33;;;;;;;10.93;2.60;;;10.40;99.90;;;;;;5088981;28;20208;-71
2023/01/12 09:59:23;;;;;;;8.53;2.20;;;10.40;99.90;;;;;;5092070;28;20229;-72
2023/01/12 10:01:52;;;;;;;11.50;2.50;;;10.40;99.90;;;;;;5097877;28;20175;-71
2023/01/12 10:04:18;;;;;;;5.37;2.37;;;10.40;99.90;;;;;;5092683;28;20562;-71
2023/01/12 10:06:43;;;;;;;7.40;2.27;;;10.40;99.90;;;;;;5108538;28;20284;-72
2023/01/12 10:09:15;;;;;;;7.90;2.30;;;10.40;99.90;;;;;;5095280;28;20195;-70
2023/01/12 10:11:47;;;;;;;12.27;2.60;;;10.50;99.90;;;;;;5103799;28;20649;-71
2023/01/12 10:14:31;;;;;;;8.47;2.73;;;10.50;99.90;;;;;;5097005;28;20525;-70
2023/01/12 10:17:24;;;;;;;8.67;2.30;;;10.50;99.90;;;;;;5089950;28;20293;-70
2023/01/12 10:20:00;;;;;;;10.27;2.37;;;10.50;99.90;;;;;;5106711;28;20171;-72
2023/01/12 10:22:37;;;;;;;11.10;2.50;;;10.50;99.90;;;;;;5098789;28;20184;-70
2023/01/12 10:25:34;;;;;;;13.40;2.50;;;10.50;99.90;;;;;;5097275;28;20527;-73
2023/01/12 10:28:13;;;;;;;8.90;2.40;;;10.60;99.90;;;;;;5089867;28;20578;-69
2023/01/12 10:30:39;;;;;;;7.37;2.37;;;10.50;99.90;;;;;;5098132;28;20172;-71
2023/01/12 10:33:11;;;;;;;5.43;1.90;;;10.50;99.90;;;;;;5101156;28;20183;-71
2023/01/12 10:35:47;;;;;;;12.20;2.40;;;10.50;99.90;;;;;;5086912;28;20206;-71
2023/01/12 10:38:27;;;;;;;6.73;2.13;;;10.50;99.90;;;;;;5090928;28;20199;-71
2023/01/12 10:41:11;;;;;;;14.20;4.33;;;10.60;99.90;;;;;;5111475;28;20282;-69
2023/01/12 10:43:39;;;;;;;9.43;3.03;;;10.60;99.90;;;;;;5092634;28;20230;-70
2023/01/12 10:46:08;;;;;;;17.20;7.23;;;10.60;99.90;;;;;;5093650;28;20176;-70
2023/01/12 10:48:34;;;;;;;7.33;2.50;;;10.60;99.90;;;;;;5093036;28;20215;-72
2023/01/12 10:51:23;;;;;;;11.67;4.53;;;10.70;99.90;;;;;;5093253;28;20168;-71
2023/01/12 10:53:54;;;;;;;9.97;4.27;;;10.70;99.90;;;;;;5093197;28;20168;-73
2023/01/12 10:56:31;;;;;;;7.63;2.80;;;10.70;99.90;;;;;;5092960;28;20250;-71
2023/01/12 10:58:57;;;;;;;19.30;7.60;;;10.70;99.90;;;;;;5091748;28;20229;-70
2023/01/12 11:01:23;;;;;;;10.43;3.13;;;10.70;99.90;;;;;;5093285;28;20160;-71
2023/01/12 11:03:49;;;;;;;13.00;2.90;;;10.70;99.90;;;;;;5092198;28;20638;-72
2023/01/12 11:06:23;;;;;;;7.13;2.60;;;10.60;99.90;;;;;;5092868;28;20171;-71
2023/01/12 11:08:49;;;;;;;7.63;2.50;;;10.60;99.90;;;;;;5092894;28;20271;-72
2023/01/12 11:11:35;;;;;;;10.30;4.83;;;10.50;99.90;;;;;;5092771;28;20623;-71
2023/01/12 11:14:02;;;;;;;8.17;2.67;;;10.40;99.90;;;;;;5081141;28;20188;-71
2023/01/12 11:16:42;;;;;;;6.80;2.43;;;10.60;99.90;;;;;;5092913;28;20246;-71
2023/01/12 11:19:17;;;;;;;8.60;2.77;;;10.60;99.90;;;;;;5090634;28;20191;-72
2023/01/12 11:22:07;;;;;;;17.87;11.93;;;10.60;99.90;;;;;;5092556;28;20615;-71
2023/01/12 11:24:47;;;;;;;5.80;2.20;;;10.70;99.90;;;;;;5092616;28;20187;-72
2023/01/12 11:27:38;;;;;;;7.83;3.80;;;10.60;99.90;;;;;;5077403;28;20219;-72
2023/01/12 11:30:35;;;;;;;7.07;2.73;;;10.70;99.90;;;;;;5080906;28;20581;-71
2023/01/12 11:33:11;;;;;;;5.87;2.90;;;10.70;99.90;;;;;;5045872;28;20216;-73
2023/01/12 11:35:45;;;;;;;9.77;2.43;;;10.70;99.90;;;;;;5050404;28;20196;-72
2023/01/12 11:38:35;;;;;;;5.80;2.20;;;10.70;99.90;;;;;;5049524;28;20184;-72
2023/01/12 11:41:06;;;;;;;3.90;2.13;;;10.60;99.90;;;;;;5050091;28;20680;-72
2023/01/12 11:44:06;;;;;;;4.33;1.80;;;10.60;99.90;;;;;;5049330;28;20196;-73
2023/01/12 11:46:48;;;;;;;4.63;2.07;;;10.60;99.90;;;;;;5026273;28;20197;-72
2023/01/12 11:49:40;;;;;;;10.03;8.90;;;10.70;99.90;;;;;;5048310;28;20276;-72
2023/01/12 11:52:09;;;;;;;4.63;2.23;;;10.70;99.90;;;;;;5050017;28;20226;-72
2023/01/12 11:54:37;;;;;;;5.10;1.93;;;10.80;99.90;;;;;;5049604;28;20180;-71
2023/01/12 11:57:30;;;;;;;65.13;37.00;;;10.80;99.90;;;;;;5048658;28;20221;-71
2023/01/12 11:59:55;;;;;;;5.20;2.43;;;10.80;99.90;;;;;;5047834;28;20269;-71
2023/01/12 12:02:39;;;;;;;4.73;3.83;;;10.80;99.90;;;;;;5047583;28;20227;-71
2023/01/12 12:05:13;;;;;;;14.13;12.37;;;10.80;99.90;;;;;;5039970;28;20181;-72
2023/01/12 12:07:55;;;;;;;7.10;4.33;;;10.80;99.90;;;;;;5045037;28;20261;-72
2023/01/12 12:10:36;;;;;;;27.97;25.37;;;10.90;99.90;;;;;;5079222;28;20186;-71
2023/01/12 12:13:17;;;;;;;2.23;1.60;;;10.90;99.90;;;;;;5100907;28;20152;-71
2023/01/12 12:16:04;;;;;;;4.30;2.73;;;10.80;99.90;;;;;;5090257;28;20290;-71
2023/01/12 12:19:01;;;;;;;8.37;4.90;;;10.90;99.90;;;;;;5078899;28;20191;-71
2023/01/12 12:21:33;;;;;;;4.17;2.00;;;10.90;99.90;;;;;;5072179;28;20187;-71
2023/01/12 12:24:40;;;;;;;3.53;1.37;;;10.90;99.90;;;;;;5075858;28;20181;-70
2023/01/12 12:27:21;;;;;;;4.33;1.73;;;10.90;99.90;;;;;;5095570;28;20183;-70
2023/01/12 12:30:23;;;;;;;5.67;1.63;;;10.90;99.90;;;;;;5104815;28;20194;-71
2023/01/12 12:33:07;;;;;;;4.10;1.70;;;10.90;99.90;;;;;;5074780;28;20208;-70
2023/01/12 12:35:39;;;;;;;2.60;1.53;;;10.90;99.90;;;;;;5082667;28;20200;-71
2023/01/12 12:38:24;;;;;;;3.17;1.30;;;10.90;99.90;;;;;;5107740;28;20236;-70
2023/01/12 12:47:10;;;;;;;5.87;2.80;;;11.00;99.90;;;;;;5090908;28;20606;-72
2023/01/12 12:49:37;;;;;;;5.03;4.20;;;11.00;99.90;;;;;;5096400;28;20528;-70
2023/01/12 12:52:03;;;;;;;7.40;1.97;;;11.00;99.90;;;;;;5107398;28;20626;-70
2023/01/12 12:54:31;;;;;;;6.43;2.53;;;11.00;99.90;;;;;;5095892;28;20159;-71
2023/01/12 12:56:57;;;;;;;11.93;7.83;;;11.00;99.90;;;;;;5095974;28;20211;-70
2023/01/12 12:59:56;;;;;;;12.87;9.67;;;11.10;99.90;;;;;;5094576;28;20186;-71
2023/01/12 13:02:30;;;;;;;7.40;5.03;;;11.10;99.90;;;;;;5086293;28;20172;-72
2023/01/12 13:04:57;;;;;;;9.27;7.00;;;11.10;99.90;;;;;;5103734;28;20163;-74
2023/01/12 13:07:25;;;;;;;2.90;1.90;;;11.10;99.90;;;;;;5085999;28;20565;-71
2023/01/12 13:10:00;;;;;;;7.53;6.80;;;11.00;99.90;;;;;;5094457;28;20211;-71
2023/01/12 13:12:31;;;;;;;3.90;2.00;;;11.10;99.90;;;;;;5085593;28;20179;-71
2023/01/12 13:15:17;;;;;;;7.03;4.67;;;11.00;99.90;;;;;;5105187;28;20258;-69
2023/01/12 13:17:45;;;;;;;6.03;4.90;;;11.10;99.90;;;;;;5088971;28;20179;-71
2023/01/12 13:20:10;;;;;;;6.63;5.70;;;11.10;99.90;;;;;;5093200;28;20257;-72
2023/01/12 13:22:42;;;;;;;5.93;2.20;;;11.10;99.90;;;;;;5093604;28;20219;-71
2023/01/12 13:25:18;;;;;;;5.97;2.80;;;11.10;99.90;;;;;;5095241;28;20212;-71
2023/01/12 13:30:22;;;;;;;4.67;2.20;;;11.10;99.90;;;;;;5090597;28;20185;-72
2023/01/12 13:32:53;;;;;;;5.70;1.90;;;11.10;99.90;;;;;;5096639;28;20172;-72
2023/01/12 13:35:22;;;;;;;2.47;1.80;;;11.20;99.90;;;;;;5108431;28;20169;-70
2023/01/12 13:38:03;;;;;;;7.33;1.80;;;11.10;99.90;;;;;;5096903;28;20172;-71
2023/01/12 13:40:31;;;;;;;5.03;1.90;;;11.10;99.90;;;;;;5097854;28;20168;-71
2023/01/12 13:43:15;;;;;;;3.30;1.50;;;11.10;99.90;;;;;;5103401;28;20180;-71
2023/01/12 13:46:02;;;;;;;4.43;1.90;;;11.10;99.90;;;;;;5094145;28;20220;-71
2023/01/12 13:48:29;;;;;;;2.60;1.33;;;11.10;99.90;;;;;;5106904;28;20164;-69